Time;durP1;ratioP1;P1;durP2;ratioP2;P2;SDS_P1;SDS_P2;PMS_P1;PMS_P2;Temp;Humidity;BMP_temperature;BMP_pressure;BME280_temperature;BME280_humidity;BME280_pressure;Samples;Min_cycle;Max_cycle;Signal;HPM_P1;HPM_P2
2022/10/07 00:00:55;;;;;;;11.05;2.90;;;9.80;99.90;;;;;;4960226;28;20372;-70
2022/10/07 00:03:22;;;;;;;9.90;2.90;;;9.80;99.90;;;;;;4944931;29;20049;-72
2022/10/07 00:06:01;;;;;;;8.98;2.88;;;9.70;99.90;;;;;;4950580;28;20090;-71
2022/10/07 00:08:27;;;;;;;10.35;3.00;;;9.70;99.90;;;;;;4949867;28;20054;-71
2022/10/07 00:10:53;;;;;;;8.93;3.40;;;9.60;99.90;;;;;;4944469;29;20039;-70
2022/10/07 00:13:18;;;;;;;8.20;3.25;;;9.60;99.90;;;;;;4945425;29;20042;-70
2022/10/07 00:15:44;;;;;;;9.38;3.03;;;9.60;99.90;;;;;;4944791;29;20046;-72
2022/10/07 00:18:10;;;;;;;6.95;2.83;;;9.60;99.90;;;;;;4944226;29;20055;-71
2022/10/07 00:20:39;;;;;;;10.18;3.38;;;9.60;99.90;;;;;;4945643;29;20043;-72
2022/10/07 00:23:06;;;;;;;7.97;3.35;;;9.50;99.90;;;;;;4945634;29;20115;-72
2022/10/07 00:25:36;;;;;;;8.00;3.00;;;9.60;99.90;;;;;;4960448;28;20047;-71
2022/10/07 00:28:02;;;;;;;11.23;3.10;;;9.40;99.90;;;;;;4945774;29;20050;-71
2022/10/07 00:30:28;;;;;;;9.05;3.35;;;9.50;99.90;;;;;;4945990;29;20443;-69
2022/10/07 00:32:53;;;;;;;8.15;2.90;;;9.40;99.90;;;;;;4944341;29;20059;-69
2022/10/07 00:35:19;;;;;;;8.77;3.22;;;9.50;99.90;;;;;;4945074;29;20134;-70
2022/10/07 00:37:45;;;;;;;9.45;2.88;;;9.40;99.90;;;;;;4945711;29;20126;-71
2022/10/07 00:40:12;;;;;;;10.00;2.85;;;9.50;99.90;;;;;;4946873;28;20043;-69
2022/10/07 00:42:39;;;;;;;8.68;3.15;;;9.60;99.90;;;;;;4949443;29;20050;-72
2022/10/07 00:45:16;;;;;;;8.52;3.03;;;9.60;99.90;;;;;;4949286;29;20047;-72
2022/10/07 00:47:47;;;;;;;10.32;3.08;;;9.50;99.90;;;;;;4947920;29;20050;-72
2022/10/07 00:50:25;;;;;;;9.75;3.30;;;9.50;99.90;;;;;;4949096;29;20465;-69
2022/10/07 00:52:55;;;;;;;10.25;3.10;;;9.50;99.90;;;;;;4949233;29;20055;-70
2022/10/07 00:55:24;;;;;;;7.70;2.88;;;9.50;99.90;;;;;;4948415;29;20066;-69
2022/10/07 00:57:53;;;;;;;8.13;3.13;;;9.50;99.90;;;;;;4949214;29;20158;-72
2022/10/07 01:00:22;;;;;;;10.90;4.07;;;9.50;99.90;;;;;;4948495;29;20039;-69
2022/10/07 01:02:48;;;;;;;10.70;3.78;;;9.60;99.90;;;;;;4947881;29;20042;-71
2022/10/07 01:05:14;;;;;;;10.52;3.45;;;9.40;99.90;;;;;;4947948;29;20783;-72
2022/10/07 01:07:41;;;;;;;10.20;3.75;;;9.50;99.90;;;;;;4931899;29;20038;-70
2022/10/07 01:10:10;;;;;;;8.57;3.60;;;9.40;99.90;;;;;;4948320;29;20620;-71
2022/10/07 01:12:47;;;;;;;7.80;3.50;;;9.40;99.90;;;;;;4947429;29;20048;-69
2022/10/07 01:15:49;;;;;;;11.40;4.10;;;9.40;99.90;;;;;;4948412;29;20495;-71
2022/10/07 01:18:30;;;;;;;12.20;4.45;;;9.30;99.90;;;;;;4940461;29;20467;-72
2022/10/07 01:21:04;;;;;;;10.82;3.60;;;9.50;99.90;;;;;;4947998;29;20513;-71
2022/10/07 01:23:58;;;;;;;8.85;3.60;;;9.40;99.90;;;;;;4931755;29;20055;-70
2022/10/07 01:26:29;;;;;;;12.35;4.35;;;9.40;99.90;;;;;;4947855;29;20059;-71
2022/10/07 01:29:02;;;;;;;12.82;4.50;;;9.40;99.90;;;;;;4947932;29;20047;-71
2022/10/07 01:31:34;;;;;;;11.73;4.40;;;9.40;99.90;;;;;;4948322;29;20515;-69
2022/10/07 01:34:02;;;;;;;7.82;3.40;;;9.30;99.90;;;;;;4948057;29;20410;-70
2022/10/07 01:36:28;;;;;;;11.32;4.10;;;9.30;99.90;;;;;;4948907;29;20074;-71
2022/10/07 01:39:01;;;;;;;11.70;4.03;;;9.30;99.90;;;;;;4947583;29;20398;-70
2022/10/07 01:41:29;;;;;;;10.30;3.85;;;9.30;99.90;;;;;;4948408;29;20414;-71
2022/10/07 01:43:57;;;;;;;10.82;3.80;;;9.30;99.90;;;;;;4947918;29;20046;-72
2022/10/07 01:46:25;;;;;;;9.73;3.78;;;9.30;99.90;;;;;;4946524;29;20459;-70
2022/10/07 01:48:52;;;;;;;8.88;3.75;;;9.30;99.90;;;;;;4947242;29;20061;-71
2022/10/07 01:51:24;;;;;;;11.55;5.00;;;9.20;99.90;;;;;;4947192;28;20542;-72
2022/10/07 01:54:23;;;;;;;8.18;3.95;;;9.10;99.90;;;;;;4947965;29;20043;-71
2022/10/07 01:56:52;;;;;;;9.50;4.22;;;9.20;99.90;;;;;;4961646;28;20051;-70
2022/10/07 01:59:33;;;;;;;9.70;4.10;;;9.20;99.90;;;;;;4929843;29;20498;-72
2022/10/07 02:02:21;;;;;;;8.70;4.05;;;9.20;99.90;;;;;;4946341;29;20102;-70
2022/10/07 02:05:05;;;;;;;9.20;4.13;;;9.30;99.90;;;;;;4945816;29;20070;-71
2022/10/07 02:07:38;;;;;;;10.60;4.15;;;9.20;99.90;;;;;;4942988;29;20411;-70
2022/10/07 02:10:14;;;;;;;12.32;4.70;;;9.20;99.90;;;;;;4947239;29;20061;-71
2022/10/07 02:12:57;;;;;;;9.93;4.32;;;9.20;99.90;;;;;;4946644;29;20062;-71
2022/10/07 02:15:50;;;;;;;9.23;4.07;;;9.10;99.90;;;;;;4943203;29;20459;-72
2022/10/07 02:18:18;;;;;;;9.48;4.07;;;9.10;99.90;;;;;;4937114;28;20062;-72
2022/10/07 02:20:49;;;;;;;13.23;4.40;;;9.10;99.90;;;;;;4965494;28;20054;-72
2022/10/07 02:23:18;;;;;;;10.50;4.28;;;9.10;99.90;;;;;;4966957;28;20101;-72
2022/10/07 02:25:47;;;;;;;11.90;4.40;;;9.10;99.90;;;;;;4965796;28;20130;-69
2022/10/07 02:28:18;;;;;;;13.48;4.32;;;9.10;99.90;;;;;;4966604;28;20054;-70
2022/10/07 02:30:47;;;;;;;14.20;4.53;;;9.10;99.90;;;;;;4966496;28;20043;-72
2022/10/07 02:33:14;;;;;;;9.15;4.50;;;9.10;99.90;;;;;;4964822;28;20093;-71
2022/10/07 02:35:46;;;;;;;11.13;4.28;;;9.10;99.90;;;;;;4966796;28;20097;-71
2022/10/07 02:38:14;;;;;;;11.77;3.85;;;9.30;99.90;;;;;;4966512;28;20057;-72
2022/10/07 02:40:53;;;;;;;12.82;4.20;;;9.10;99.90;;;;;;4966064;28;20087;-72
2022/10/07 02:43:35;;;;;;;11.82;3.92;;;9.10;99.90;;;;;;4935860;29;20419;-72
2022/10/07 02:46:07;;;;;;;12.13;4.13;;;9.20;99.90;;;;;;4946460;29;20051;-69
2022/10/07 02:48:43;;;;;;;10.85;3.90;;;9.10;99.90;;;;;;4946676;29;20070;-72
2022/10/07 02:51:17;;;;;;;11.70;4.50;;;9.00;99.90;;;;;;4946639;29;20053;-71
2022/10/07 02:53:48;;;;;;;12.80;4.07;;;9.10;99.90;;;;;;4947351;29;20055;-72
2022/10/07 02:56:14;;;;;;;9.95;4.03;;;9.10;99.90;;;;;;4946747;29;20051;-72
2022/10/07 02:58:44;;;;;;;9.65;4.15;;;9.00;99.90;;;;;;4947123;29;20043;-72
2022/10/07 03:01:16;;;;;;;10.15;4.53;;;9.00;99.90;;;;;;4946715;29;20047;-72
2022/10/07 03:03:43;;;;;;;13.45;4.40;;;9.10;99.90;;;;;;4945555;28;20085;-72
2022/10/07 03:06:10;;;;;;;12.98;4.80;;;9.00;99.90;;;;;;4947103;28;20082;-72
2022/10/07 03:08:36;;;;;;;10.38;4.25;;;9.00;99.90;;;;;;4965861;28;20050;-72
2022/10/07 03:11:01;;;;;;;11.90;4.43;;;9.00;99.90;;;;;;4966113;28;20466;-70
2022/10/07 03:13:27;;;;;;;13.45;4.38;;;9.00;99.90;;;;;;4966658;28;20137;-70
2022/10/07 03:15:53;;;;;;;12.88;4.25;;;8.90;99.90;;;;;;4965548;28;20070;-70
2022/10/07 03:18:25;;;;;;;7.88;3.65;;;9.00;99.90;;;;;;4964728;28;20065;-73
2022/10/07 03:20:55;;;;;;;9.20;3.85;;;9.00;99.90;;;;;;4963832;28;20652;-71
2022/10/07 03:23:22;;;;;;;10.52;3.95;;;9.00;99.90;;;;;;4947958;28;20527;-72
2022/10/07 03:25:53;;;;;;;10.35;3.92;;;9.00;99.90;;;;;;4966019;28;20055;-72
2022/10/07 03:28:23;;;;;;;11.52;4.15;;;9.00;99.90;;;;;;4965391;28;20386;-71
2022/10/07 03:30:49;;;;;;;11.25;3.75;;;9.00;99.90;;;;;;4964951;28;20593;-71
2022/10/07 03:33:16;;;;;;;10.68;3.65;;;9.00;99.90;;;;;;4947433;28;20050;-72
2022/10/07 03:35:42;;;;;;;10.00;3.85;;;9.00;99.90;;;;;;4965480;28;20045;-71
2022/10/07 03:38:08;;;;;;;11.95;4.32;;;9.00;99.90;;;;;;4964738;28;20047;-70
2022/10/07 03:40:35;;;;;;;12.15;4.50;;;8.90;99.90;;;;;;4964776;28;20047;-72
2022/10/07 03:43:01;;;;;;;11.07;4.30;;;8.90;99.90;;;;;;4965472;28;20109;-70
2022/10/07 03:45:29;;;;;;;10.85;3.60;;;9.00;99.90;;;;;;4966070;28;20318;-72
2022/10/07 03:47:55;;;;;;;12.25;4.15;;;8.90;99.90;;;;;;4946725;28;20046;-69
2022/10/07 03:50:21;;;;;;;11.02;3.95;;;9.00;99.90;;;;;;4947535;28;20511;-72
2022/10/07 03:52:46;;;;;;;13.55;4.03;;;8.90;99.90;;;;;;4965171;28;20109;-70
2022/10/07 03:55:12;;;;;;;14.13;4.55;;;8.90;99.90;;;;;;4964778;28;20039;-71
2022/10/07 03:57:51;;;;;;;12.73;4.20;;;8.80;99.90;;;;;;4964674;28;20414;-70
2022/10/07 04:00:19;;;;;;;10.95;4.25;;;8.90;99.90;;;;;;4965313;28;20481;-72
2022/10/07 04:02:46;;;;;;;11.90;4.20;;;8.90;99.90;;;;;;4963557;28;20137;-71
2022/10/07 04:05:14;;;;;;;16.05;4.55;;;8.90;99.90;;;;;;4946872;28;20122;-73
2022/10/07 04:07:42;;;;;;;11.93;4.50;;;8.80;99.90;;;;;;4963132;28;20065;-70
2022/10/07 04:10:09;;;;;;;13.45;4.43;;;8.80;99.90;;;;;;4965023;28;20131;-72
2022/10/07 04:12:34;;;;;;;12.52;4.80;;;8.70;99.90;;;;;;4964680;28;20078;-71
2022/10/07 04:15:00;;;;;;;12.10;5.13;;;8.80;99.90;;;;;;4964860;28;20051;-72
2022/10/07 04:17:27;;;;;;;12.93;4.55;;;8.70;99.90;;;;;;4964754;28;20046;-71
2022/10/07 04:19:53;;;;;;;10.60;4.32;;;8.70;99.90;;;;;;4958265;28;20079;-72
2022/10/07 04:22:19;;;;;;;16.75;4.78;;;8.70;99.90;;;;;;4964706;28;20046;-70
2022/10/07 04:25:32;;;;;;;10.57;4.90;;;8.70;99.90;;;;;;4964355;28;20039;-72
2022/10/07 04:27:30;;;;;;;12.70;4.82;;;8.60;99.90;;;;;;4965332;28;20397;-71
2022/10/07 04:29:55;;;;;;;14.32;5.30;;;8.70;99.90;;;;;;4965532;28;20043;-71
2022/10/07 04:32:21;;;;;;;14.35;5.03;;;8.70;99.90;;;;;;4963797;28;20050;-71
2022/10/07 04:34:51;;;;;;;10.43;4.78;;;8.60;99.90;;;;;;4964171;28;20058;-72
2022/10/07 04:37:18;;;;;;;11.18;4.38;;;8.50;99.90;;;;;;4964675;28;20053;-71
2022/10/07 04:39:43;;;;;;;14.75;5.07;;;8.50;99.90;;;;;;4963728;28;20093;-69
2022/10/07 04:43:17;;;;;;;12.93;5.22;;;8.60;99.90;;;;;;4963840;28;20458;-70
2022/10/07 04:44:54;;;;;;;11.93;4.57;;;8.60;99.90;;;;;;4964263;28;20569;-70
2022/10/07 04:47:20;;;;;;;16.27;5.65;;;8.70;99.90;;;;;;4963737;28;20047;-72
2022/10/07 04:49:46;;;;;;;14.57;5.50;;;8.70;99.90;;;;;;4964084;28;20043;-73
2022/10/07 04:52:12;;;;;;;16.63;5.32;;;8.60;99.90;;;;;;4964636;28;20034;-72
2022/10/07 04:54:38;;;;;;;13.80;5.20;;;8.50;99.90;;;;;;4964677;28;20130;-70
2022/10/07 04:57:04;;;;;;;12.20;4.93;;;8.50;99.90;;;;;;4963797;28;20578;-73
2022/10/07 04:59:30;;;;;;;15.13;5.55;;;8.50;99.90;;;;;;4964810;28;20038;-70
2022/10/07 05:01:56;;;;;;;16.45;5.00;;;8.60;99.90;;;;;;4964738;28;20030;-71
2022/10/07 05:04:21;;;;;;;16.27;5.30;;;8.60;99.90;;;;;;4962544;28;20162;-69
2022/10/07 05:06:47;;;;;;;15.88;5.63;;;8.50;99.90;;;;;;4962484;28;20065;-69
2022/10/07 05:09:13;;;;;;;14.38;5.13;;;8.50;99.90;;;;;;4964237;28;20046;-70
2022/10/07 05:11:38;;;;;;;17.40;4.97;;;8.50;99.90;;;;;;4963117;28;20047;-69
2022/10/07 05:14:04;;;;;;;12.10;5.13;;;8.50;99.90;;;;;;4963663;28;20474;-70
2022/10/07 05:16:30;;;;;;;15.30;5.47;;;8.60;99.90;;;;;;4963442;28;20778;-70
2022/10/07 05:18:56;;;;;;;17.00;5.10;;;8.50;99.90;;;;;;4963186;28;20198;-71
2022/10/07 05:21:21;;;;;;;13.80;5.50;;;8.50;99.90;;;;;;4946668;28;20061;-70
2022/10/07 05:23:47;;;;;;;16.92;6.22;;;8.50;99.90;;;;;;4963703;28;20039;-71
2022/10/07 05:26:14;;;;;;;15.88;5.75;;;8.50;99.90;;;;;;4964587;28;20039;-71
2022/10/07 05:28:40;;;;;;;13.40;4.90;;;8.50;99.90;;;;;;4967525;28;20046;-71
2022/10/07 05:31:13;;;;;;;16.42;5.90;;;8.60;99.90;;;;;;4967189;28;20050;-70
2022/10/07 05:33:40;;;;;;;17.35;6.30;;;8.50;99.90;;;;;;4950126;28;20359;-70
2022/10/07 05:36:07;;;;;;;15.32;5.60;;;8.50;99.90;;;;;;4967549;28;20405;-70
2022/10/07 05:38:33;;;;;;;17.25;6.07;;;8.50;99.90;;;;;;4950663;28;20047;-71
2022/10/07 05:41:01;;;;;;;17.48;5.90;;;8.60;99.90;;;;;;4967478;28;20066;-69
2022/10/07 05:43:28;;;;;;;16.85;5.38;;;8.70;99.90;;;;;;4967726;28;20074;-70
2022/10/07 05:46:09;;;;;;;13.30;4.97;;;8.50;99.90;;;;;;4967373;28;20414;-71
2022/10/07 05:48:35;;;;;;;16.48;6.22;;;8.60;99.90;;;;;;4966828;28;20496;-70
2022/10/07 05:51:01;;;;;;;13.95;5.97;;;8.50;99.90;;;;;;4967383;28;20042;-70
2022/10/07 05:53:28;;;;;;;14.07;5.80;;;8.60;99.90;;;;;;4950519;28;20051;-71
2022/10/07 05:55:54;;;;;;;16.88;5.97;;;8.70;99.90;;;;;;4966963;28;20081;-71
2022/10/07 05:58:20;;;;;;;14.77;5.47;;;8.50;99.90;;;;;;4967660;28;20141;-71
2022/10/07 06:00:52;;;;;;;18.42;5.88;;;8.50;99.90;;;;;;4967953;28;20118;-70
2022/10/07 06:03:19;;;;;;;18.63;6.53;;;8.70;99.90;;;;;;4965521;28;20125;-70
2022/10/07 06:05:45;;;;;;;16.10;5.20;;;8.50;99.90;;;;;;4966509;28;20043;-71
2022/10/07 06:08:11;;;;;;;15.38;5.90;;;8.50;99.90;;;;;;4967020;28;20047;-69
2022/10/07 06:13:22;;;;;;;19.23;5.83;;;8.70;99.90;;;;;;4966755;28;20058;-71
2022/10/07 06:15:49;;;;;;;16.30;6.72;;;8.70;99.90;;;;;;4967524;28;20058;-72
2022/10/07 06:18:15;;;;;;;19.30;6.85;;;8.70;99.90;;;;;;4960295;28;20521;-71
2022/10/07 06:20:40;;;;;;;15.55;5.95;;;8.80;99.90;;;;;;4947877;29;20048;-72
2022/10/07 06:23:06;;;;;;;20.45;6.05;;;8.70;99.90;;;;;;4947463;29;20039;-69
2022/10/07 06:25:33;;;;;;;16.13;6.15;;;8.70;99.90;;;;;;4946725;29;20043;-70
2022/10/07 06:28:00;;;;;;;16.80;6.00;;;8.70;99.90;;;;;;4947666;29;20056;-70
2022/10/07 06:30:26;;;;;;;16.95;5.47;;;8.70;99.90;;;;;;4947679;29;20058;-71
2022/10/07 06:32:51;;;;;;;14.52;6.25;;;8.90;99.90;;;;;;4946716;29;20047;-70
2022/10/07 06:35:17;;;;;;;21.35;6.22;;;8.90;99.90;;;;;;4945744;29;20093;-61
2022/10/07 06:37:43;;;;;;;16.45;6.28;;;8.80;99.90;;;;;;4946427;28;20058;-68
2022/10/07 06:40:09;;;;;;;16.52;6.05;;;9.00;99.90;;;;;;4926989;29;20035;-68
2022/10/07 06:42:35;;;;;;;20.17;6.15;;;8.90;99.90;;;;;;4929238;29;20071;-67
2022/10/07 06:45:01;;;;;;;13.40;4.95;;;8.90;99.90;;;;;;4946895;29;20925;-68
2022/10/07 06:47:27;;;;;;;18.42;5.57;;;9.10;99.90;;;;;;4946429;29;20039;-68
2022/10/07 06:49:52;;;;;;;17.52;6.07;;;9.10;99.90;;;;;;4947484;29;20047;-66
2022/10/07 06:52:18;;;;;;;14.23;4.65;;;9.20;99.90;;;;;;4956228;28;20050;-67
2022/10/07 06:54:44;;;;;;;13.68;5.95;;;9.20;99.90;;;;;;4965771;28;20113;-67
2022/10/07 06:57:09;;;;;;;11.98;5.43;;;9.20;99.90;;;;;;4965785;28;20057;-67
2022/10/07 06:59:36;;;;;;;17.80;6.32;;;9.60;99.90;;;;;;4948064;28;20047;-68
2022/10/07 07:02:01;;;;;;;14.50;5.97;;;9.30;99.90;;;;;;4964984;28;20050;-68
2022/10/07 07:04:27;;;;;;;16.30;5.40;;;9.40;99.90;;;;;;4965659;28;20618;-67
2022/10/07 07:06:52;;;;;;;15.73;5.53;;;9.50;99.90;;;;;;4946194;29;20588;-68
2022/10/07 07:09:21;;;;;;;19.77;6.78;;;9.50;99.90;;;;;;4945920;29;20443;-67
2022/10/07 07:11:47;;;;;;;16.80;5.75;;;9.70;99.90;;;;;;4946668;29;20043;-69
2022/10/07 07:14:13;;;;;;;18.98;6.22;;;9.70;99.90;;;;;;4945949;29;20047;-68
2022/10/07 07:16:39;;;;;;;16.25;5.95;;;9.80;99.90;;;;;;4945029;29;20098;-68
2022/10/07 07:19:07;;;;;;;21.73;6.18;;;9.90;99.90;;;;;;4956689;28;20062;-69
2022/10/07 07:21:37;;;;;;;12.40;5.13;;;10.00;99.90;;;;;;4965289;28;20101;-68
2022/10/07 07:24:03;;;;;;;18.55;6.13;;;10.10;99.90;;;;;;4965273;28;20047;-68
2022/10/07 07:26:29;;;;;;;18.48;5.93;;;10.30;99.90;;;;;;4964880;28;20043;-67
2022/10/07 07:29:01;;;;;;;17.55;5.68;;;10.40;99.90;;;;;;4965358;28;20502;-67
2022/10/07 07:31:29;;;;;;;14.25;4.50;;;10.50;99.90;;;;;;4965447;28;20120;-67
2022/10/07 07:34:00;;;;;;;17.80;5.38;;;10.50;99.90;;;;;;4963422;28;20042;-67
2022/10/07 07:36:28;;;;;;;17.83;5.40;;;10.60;99.90;;;;;;4965007;28;20536;-67
2022/10/07 07:38:55;;;;;;;15.25;4.95;;;10.70;99.90;;;;;;4964907;28;20061;-67
2022/10/07 07:41:25;;;;;;;10.63;4.13;;;10.70;99.90;;;;;;4964443;28;20120;-67
2022/10/07 07:43:53;;;;;;;12.77;4.85;;;10.80;99.90;;;;;;4965614;28;20073;-67
2022/10/07 07:46:21;;;;;;;17.73;5.38;;;10.80;99.90;;;;;;4964898;28;20502;-66
2022/10/07 07:48:48;;;;;;;19.33;5.78;;;10.80;99.90;;;;;;4963460;28;20070;-63
2022/10/07 07:51:16;;;;;;;13.20;4.68;;;10.90;99.90;;;;;;4963882;28;20050;-67
2022/10/07 07:53:42;;;;;;;11.73;4.25;;;11.00;99.90;;;;;;4947138;28;20487;-67
2022/10/07 07:56:08;;;;;;;14.77;4.70;;;11.20;99.90;;;;;;4946447;28;20061;-69
2022/10/07 07:58:34;;;;;;;14.50;4.70;;;11.30;99.90;;;;;;4964147;28;20724;-67
2022/10/07 08:01:05;;;;;;;11.27;4.65;;;11.40;99.90;;;;;;4964787;28;20050;-66
2022/10/07 08:03:32;;;;;;;18.27;4.63;;;11.50;99.90;;;;;;4945420;28;20058;-67
2022/10/07 08:06:01;;;;;;;15.63;5.05;;;11.60;99.90;;;;;;4963386;28;20039;-66
2022/10/07 08:08:27;;;;;;;11.82;4.25;;;11.70;99.90;;;;;;4964072;28;20047;-66
2022/10/07 08:10:53;;;;;;;12.27;4.47;;;11.70;99.90;;;;;;4964228;28;20399;-66
2022/10/07 08:13:19;;;;;;;18.80;4.63;;;11.90;99.90;;;;;;4963063;28;20046;-66
2022/10/07 08:15:45;;;;;;;13.80;4.10;;;11.90;99.90;;;;;;4964770;28;20050;-66
2022/10/07 08:18:10;;;;;;;14.52;4.03;;;12.10;99.90;;;;;;4963371;28;20050;-66
2022/10/07 08:20:36;;;;;;;17.65;4.22;;;12.10;99.90;;;;;;4963272;28;20142;-67
2022/10/07 08:23:03;;;;;;;14.73;4.40;;;12.20;99.90;;;;;;4964827;28;20405;-67
2022/10/07 08:25:29;;;;;;;14.85;4.20;;;12.20;99.90;;;;;;4965618;28;20082;-66
2022/10/07 08:27:55;;;;;;;11.25;3.75;;;12.30;99.90;;;;;;4947861;28;20094;-66
2022/10/07 08:30:20;;;;;;;11.90;3.25;;;12.40;99.90;;;;;;4964743;28;20799;-67
2022/10/07 08:32:46;;;;;;;12.75;3.50;;;12.50;99.90;;;;;;4965108;28;20047;-66
2022/10/07 08:35:12;;;;;;;13.07;3.92;;;12.70;99.90;;;;;;4947368;28;20055;-66
2022/10/07 08:37:37;;;;;;;12.43;3.50;;;12.60;99.90;;;;;;4965390;28;20046;-67
2022/10/07 08:40:03;;;;;;;9.05;2.67;;;12.70;99.90;;;;;;4965224;28;20039;-67
2022/10/07 08:42:39;;;;;;;8.85;2.72;;;12.80;99.90;;;;;;4966062;28;20159;-66
2022/10/07 08:45:09;;;;;;;10.27;2.25;;;13.00;99.90;;;;;;4965064;28;20035;-67
2022/10/07 08:47:44;;;;;;;12.98;2.90;;;13.00;99.90;;;;;;4963507;28;20405;-67
2022/10/07 08:50:28;;;;;;;;;;;13.00;99.90;;;;;;4947285;28;20580;-67
2022/10/07 08:53:05;;;;;;;12.25;3.65;;;13.20;99.90;;;;;;4964393;28;19930;-66
2022/10/07 08:55:55;;;;;;;9.48;2.53;;;13.20;99.90;;;;;;4964363;28;20051;-67
2022/10/07 08:58:43;;;;;;;7.85;2.60;;;13.30;99.90;;;;;;4946706;28;20501;-66
2022/10/07 09:01:34;;;;;;;11.55;2.85;;;13.50;99.90;;;;;;4964161;28;20099;-66
2022/10/07 09:04:21;;;;;;;9.10;2.60;;;13.80;99.90;;;;;;4969017;28;20445;-66
2022/10/07 09:07:03;;;;;;;15.85;3.30;;;13.70;99.90;;;;;;4957129;28;20054;-66
2022/10/07 09:09:38;;;;;;;11.80;2.97;;;14.00;99.90;;;;;;4960775;28;20043;-67
2022/10/07 09:12:09;;;;;;;9.15;2.38;;;14.30;99.90;;;;;;4956075;28;20051;-67
2022/10/07 09:14:40;;;;;;;7.18;2.45;;;14.10;99.90;;;;;;4967424;28;20046;-66
2022/10/07 09:17:18;;;;;;;11.30;3.00;;;14.10;99.90;;;;;;4965496;28;20046;-67
2022/10/07 09:19:47;;;;;;;7.43;2.03;;;14.10;99.90;;;;;;4960858;28;20074;-66
2022/10/07 09:22:29;;;;;;;11.13;2.58;;;14.30;99.90;;;;;;4949071;29;20105;-66
2022/10/07 09:25:10;;;;;;;8.90;2.60;;;14.50;99.90;;;;;;4947962;29;20043;-66
2022/10/07 09:27:36;;;;;;;11.68;3.25;;;14.80;99.90;;;;;;4948437;29;20095;-66
2022/10/07 09:30:02;;;;;;;11.35;2.50;;;15.20;99.90;;;;;;4947731;29;20047;-67
2022/10/07 09:32:28;;;;;;;10.20;2.80;;;15.40;99.90;;;;;;4948352;29;20047;-67
2022/10/07 09:34:54;;;;;;;10.98;3.25;;;14.90;99.90;;;;;;4948290;29;20482;-66
2022/10/07 09:37:26;;;;;;;14.07;2.72;;;15.20;99.90;;;;;;4931465;29;20051;-67
2022/10/07 09:40:15;;;;;;;11.80;2.92;;;15.30;99.90;;;;;;4947326;29;20047;-66
2022/10/07 09:42:44;;;;;;;14.23;3.10;;;15.70;99.90;;;;;;4947095;29;20055;-67
2022/10/07 09:45:26;;;;;;;13.50;2.80;;;16.10;99.90;;;;;;4945113;29;20134;-67
2022/10/07 09:47:55;;;;;;;9.93;2.05;;;15.80;99.90;;;;;;4946678;29;20406;-67
2022/10/07 09:50:33;;;;;;;13.70;3.10;;;15.50;99.90;;;;;;4947393;29;20084;-67
2022/10/07 09:53:00;;;;;;;15.80;2.70;;;15.80;99.90;;;;;;4949023;29;20051;-67
2022/10/07 09:55:47;;;;;;;13.23;2.92;;;15.80;99.90;;;;;;4948728;29;20114;-67
2022/10/07 09:58:17;;;;;;;7.95;2.00;;;16.10;99.90;;;;;;4946621;29;20063;-63
2022/10/07 10:00:45;;;;;;;9.18;2.50;;;16.10;99.90;;;;;;4947906;29;20043;-66
2022/10/07 10:03:11;;;;;;;12.60;2.67;;;16.20;99.90;;;;;;4945786;29;20386;-67
2022/10/07 10:05:51;;;;;;;8.80;1.65;;;16.40;99.90;;;;;;4955379;28;20043;-67
2022/10/07 10:08:17;;;;;;;6.05;1.90;;;16.30;99.90;;;;;;4967007;28;20061;-67
2022/10/07 10:11:00;;;;;;;11.70;2.47;;;16.00;99.90;;;;;;4966309;28;20047;-67
2022/10/07 10:13:34;;;;;;;12.50;2.65;;;16.20;99.90;;;;;;4949439;28;20130;-67
2022/10/07 10:16:02;;;;;;;11.57;2.53;;;16.40;99.90;;;;;;4966699;28;20752;-67
2022/10/07 10:18:35;;;;;;;10.95;2.35;;;16.80;99.90;;;;;;4966980;28;20395;-67
2022/10/07 10:21:18;;;;;;;10.90;2.83;;;16.60;99.90;;;;;;4949287;28;20062;-67
2022/10/07 10:23:47;;;;;;;8.85;2.33;;;16.70;99.90;;;;;;4967169;28;20110;-66
2022/10/07 10:26:40;;;;;;;10.77;2.58;;;16.50;99.90;;;;;;4966866;28;20097;-67
2022/10/07 10:29:22;;;;;;;11.73;2.97;;;16.30;99.90;;;;;;4967136;28;20070;-67
2022/10/07 10:32:00;;;;;;;11.73;2.83;;;16.70;99.90;;;;;;4965009;28;20084;-66
2022/10/07 10:34:51;;;;;;;12.77;2.88;;;16.70;99.90;;;;;;4967029;28;20055;-66
2022/10/07 10:37:23;;;;;;;13.27;2.38;;;16.70;99.90;;;;;;4964147;28;20149;-67
2022/10/07 10:40:00;;;;;;;6.63;1.70;;;16.90;99.90;;;;;;4967010;28;20836;-67
2022/10/07 10:42:41;;;;;;;9.68;2.10;;;16.80;99.90;;;;;;4948943;28;20109;-66
2022/10/07 10:45:34;;;;;;;10.48;2.30;;;16.50;99.90;;;;;;4965574;28;20079;-67
2022/10/07 10:48:35;;;;;;;9.52;2.00;;;16.60;99.90;;;;;;4945751;29;20435;-67
2022/10/07 10:51:26;;;;;;;9.10;2.20;;;16.50;99.90;;;;;;4963124;28;20078;-68
2022/10/07 10:54:11;;;;;;;14.48;2.50;;;16.30;99.90;;;;;;4966095;28;20324;-66
2022/10/07 10:56:52;;;;;;;16.50;3.25;;;16.20;99.90;;;;;;4965552;28;20058;-67
2022/10/07 10:59:42;;;;;;;11.13;2.30;;;16.20;99.90;;;;;;4949061;28;20047;-67
2022/10/07 11:02:21;;;;;;;10.50;2.22;;;16.20;99.90;;;;;;4965517;28;20407;-67
2022/10/07 11:04:53;;;;;;;12.23;2.70;;;16.20;99.90;;;;;;4948497;28;20047;-67
2022/10/07 11:07:28;;;;;;;6.90;1.67;;;16.30;99.90;;;;;;4965679;28;20061;-67
2022/10/07 11:10:01;;;;;;;8.05;2.17;;;16.20;99.90;;;;;;4965671;28;20057;-67
2022/10/07 11:12:35;;;;;;;11.35;2.22;;;16.40;99.90;;;;;;4965425;28;20626;-67
2022/10/07 11:15:31;;;;;;;7.43;1.80;;;16.50;99.90;;;;;;4965935;28;20109;-68
2022/10/07 11:18:03;;;;;;;5.80;1.30;;;16.60;99.90;;;;;;4959113;28;20211;-67
2022/10/07 11:20:38;;;;;;;5.43;1.35;;;16.40;99.90;;;;;;4965808;28;20078;-67
2022/10/07 11:23:18;;;;;;;6.18;2.00;;;16.50;99.90;;;;;;4965057;28;20050;-66
2022/10/07 11:25:56;;;;;;;6.10;1.42;;;16.30;99.90;;;;;;4965544;28;20047;-67
2022/10/07 11:28:26;;;;;;;9.13;1.63;;;16.70;99.90;;;;;;4965212;28;20066;-66
2022/10/07 11:31:04;;;;;;;10.77;2.33;;;16.60;99.90;;;;;;4965674;28;20050;-68
2022/10/07 11:33:47;;;;;;;7.57;1.65;;;16.80;99.90;;;;;;4949584;28;20050;-66
2022/10/07 11:36:38;;;;;;;6.32;1.55;;;16.60;99.90;;;;;;4965543;28;20051;-67
2022/10/07 11:39:04;;;;;;;10.32;2.05;;;16.70;99.90;;;;;;4964882;28;20571;-67
2022/10/07 11:42:14;;;;;;;4.97;1.13;;;16.90;99.90;;;;;;4966081;28;20055;-67
2022/10/07 11:45:03;;;;;;;6.97;1.90;;;16.70;99.90;;;;;;4905176;29;20151;-67
2022/10/07 11:47:36;;;;;;;7.78;1.55;;;17.00;99.90;;;;;;4957484;28;20054;-66
2022/10/07 11:50:22;;;;;;;5.40;1.45;;;17.00;99.90;;;;;;4965942;28;20085;-67
2022/10/07 11:52:52;;;;;;;6.07;1.48;;;17.20;99.90;;;;;;4964705;28;20047;-67
2022/10/07 11:55:21;;;;;;;8.30;1.50;;;17.30;99.90;;;;;;4964417;28;20094;-67
2022/10/07 11:57:58;;;;;;;9.07;1.65;;;17.50;99.90;;;;;;4965608;28;20050;-66
2022/10/07 12:00:30;;;;;;;8.13;1.70;;;17.40;99.90;;;;;;4964948;28;20066;-67
2022/10/07 12:03:29;;;;;;;7.85;1.58;;;17.40;99.90;;;;;;4965545;28;20054;-67
2022/10/07 12:06:02;;;;;;;8.70;1.70;;;17.50;99.90;;;;;;4950251;28;20137;-67
2022/10/07 12:08:36;;;;;;;4.97;1.35;;;17.60;99.90;;;;;;4966292;28;20046;-67
2022/10/07 12:11:11;;;;;;;5.07;1.70;;;17.70;99.90;;;;;;4947407;28;20054;-67
2022/10/07 12:13:51;;;;;;;7.47;1.60;;;17.80;99.90;;;;;;4965294;28;20712;-67
2022/10/07 12:16:22;;;;;;;7.78;1.75;;;17.70;99.90;;;;;;4963509;28;20053;-67
2022/10/07 12:19:09;;;;;;;5.88;1.58;;;17.40;99.90;;;;;;4965314;28;20054;-66
2022/10/07 12:22:03;;;;;;;8.48;1.83;;;17.20;99.90;;;;;;4964431;28;20514;-67
2022/10/07 12:24:34;;;;;;;8.82;1.55;;;17.20;99.90;;;;;;4965283;28;20055;-67
2022/10/07 12:27:10;;;;;;;10.75;2.35;;;17.10;99.90;;;;;;4963659;28;20066;-67
2022/10/07 12:29:49;;;;;;;8.40;2.30;;;17.10;99.90;;;;;;4965397;28;20053;-67
2022/10/07 12:32:59;;;;;;;7.82;1.70;;;17.10;99.90;;;;;;4963781;28;20043;-67
2022/10/07 12:35:34;;;;;;;5.85;1.38;;;17.20;99.90;;;;;;4945518;28;20047;-67
2022/10/07 12:38:19;;;;;;;13.50;2.95;;;17.20;99.90;;;;;;4943199;28;20165;-66
2022/10/07 12:41:00;;;;;;;10.13;2.30;;;17.10;99.90;;;;;;4966943;28;20145;-66
2022/10/07 12:44:05;;;;;;;11.57;2.38;;;17.00;99.90;;;;;;4968070;28;20047;-66
2022/10/07 12:46:53;;;;;;;10.93;2.28;;;17.00;99.90;;;;;;4963112;28;20051;-67
2022/10/07 12:49:35;;;;;;;9.65;2.25;;;16.90;99.90;;;;;;4937747;29;20058;-66
2022/10/07 12:52:10;;;;;;;10.80;2.53;;;17.10;99.90;;;;;;4970064;28;20425;-67
2022/10/07 12:54:43;;;;;;;8.27;2.70;;;17.00;99.90;;;;;;4961607;28;20042;-66
2022/10/07 12:57:22;;;;;;;8.18;1.90;;;17.00;99.90;;;;;;4966482;28;20142;-66
2022/10/07 13:00:06;;;;;;;6.93;1.90;;;17.00;99.90;;;;;;4951185;28;20098;-66
2022/10/07 13:02:50;;;;;;;10.45;2.03;;;16.90;99.90;;;;;;4950491;28;20086;-67
2022/10/07 13:05:49;;;;;;;7.55;1.75;;;16.90;99.90;;;;;;4967550;28;20046;-66
2022/10/07 13:08:33;;;;;;;6.40;1.35;;;16.90;99.90;;;;;;4962252;28;20122;-67
2022/10/07 13:11:27;;;;;;;10.97;2.37;;;16.80;99.90;;;;;;4968946;28;20047;-67
2022/10/07 13:14:08;;;;;;;7.97;1.83;;;16.90;99.90;;;;;;4950534;28;20133;-67